Terminal Aerodrome Forecast
Issued by NWS Milwaukee/Sullivan, WI

Home | Current Version | Previous Version | Text Only | Print | Product List | Glossary On
Versions: 1 2 3 4 5 6 7 8 9 10 11 12 13 14 15 16 17 18 19 20 21 22 23 24 25 26 27 28 29 30 31 32 33 34 35 36 37 38 39 40 41 42 43 44 45 46 47 48 49 50
000
FTUS43 KMKX 281120
TAFMKE
TAF
KMKE 281120Z 2812/2918 20005KT 6SM BR SCT090
     FM281300 19005KT P6SM BKN090
     FM282000 13007KT P6SM VCSH BKN100
     FM290300 11007KT P6SM SHRA OVC080
     FM290500 34004KT P6SM SHRA OVC070
     FM290700 05004KT P6SM SHRA SCT020 OVC070
     FM290900 14009KT 6SM SHRA BR SCT015 OVC035
     FM291200 16010KT 5SM SHRA BR OVC010=

USA.gov is the U.S. government's official web portal to all federal, state and local government web resources and services.